Dansville, NY (14437)

4:14 PM EST on December 05, 2016 (GMT -0500)
dansvilleweather.com | | Change Station

Elev 760 ft 42.56 °N, 77.69 °W | Updated 4 seconds ago

Overcast
Overcast
40.7 °F
Feels Like 41 °F
N
3.0
Wind Variable Wind from WNW
Gusts 6.0 mph

Today
High -- | Low -- °F
--% Chance of Precip.
Yesterday
High -- | Low -- °F
Precip. -- in
Pressure 30.05 in
Visibility 10.0 miles
Clouds Overcast 3700 ft
Windchill 41 °F
Dew Point 30 °F
Humidity 66%
Rainfall 0.05 in
Snow Depth Not available.
7:25 AM 4:37 PM
Waxing Crescent, 35% visible
METAR KDSV 052054Z AUTO 31012G19KT 10SM OVC037 05/M03 A3001 RMK AO2 SLP176 T00501028 53020
Pressure 30.05 in
Visibility 10.0 miles
Clouds Overcast 3700 ft
Windchill 41 °F
Dew Point 30 °F
Humidity 66%
Rainfall 0.05 in
Snow Depth Not available.
7:25 AM 4:37 PM
Waxing Crescent, 35% visible
METAR KDSV 052054Z AUTO 31012G19KT 10SM OVC037 05/M03 A3001 RMK AO2 SLP176 T00501028 53020

10-Day Weather Forecast

Almanac

Astronomy

Dec. 05, 2016 Rise Set
Actual Time
Civil Twilight
Nautical Twilight
Astronomical Twilight
Moon
Length of Visible Light
Length of Day
Tomorrow will be .
, % of the Moon is Illuminated

Today's Extremes

State Highs State Lows

Community

WunderPhotos

Upload Photos

1,955,863 photos uploaded!

WunderBlog® & News

Nearby

Air Quality

  Air Quality AQ Index Pollutant
Not available.

Snow Depth

Station Depth Elevation

Earthquake Activity

City Distance Mag. Time & Date
Minimum magnitude displayed is 2.5.

Coastal Water Temperatures

Place Temperature

Stations

Nearby Weather Stations

Station Location Temp. Windchill Dew Point Humidity Wind Precip. Elev Updated Type
                   

Watches & Warnings

There are currently no watches in effect.